TimeCDT,TemperatureF,Dew PointF,Humidity,Sea Level PressureIn,VisibilityMPH,Wind Direction,Wind SpeedMPH,Gust SpeedMPH,PrecipitationIn,Events,Conditions,WindDirDegrees,DateUTC
12:52 AM,72.0,69.1,91,29.91,10.0,WNW,3.5,-,N/A,,Clear,290,2013-09-03 05:52:00
1:52 AM,69.1,66.0,90,29.91,10.0,NNW,4.6,-,N/A,,Clear,330,2013-09-03 06:52:00
2:52 AM,69.1,64.9,87,29.91,10.0,Calm,Calm,-,N/A,,Clear,0,2013-09-03 07:52:00
3:52 AM,68.0,64.0,87,29.91,10.0,NW,4.6,-,N/A,,Clear,310,2013-09-03 08:52:00
4:52 AM,66.9,64.0,90,29.93,10.0,WNW,4.6,-,N/A,,Clear,290,2013-09-03 09:52:00
5:52 AM,66.0,63.0,90,29.94,10.0,WNW,3.5,-,N/A,,Clear,290,2013-09-03 10:52:00
6:52 AM,66.0,64.0,93,29.97,10.0,NW,4.6,-,N/A,,Clear,320,2013-09-03 11:52:00
7:52 AM,69.1,64.9,87,29.99,10.0,NNW,4.6,-,N/A,,Clear,340,2013-09-03 12:52:00
8:52 AM,73.9,66.0,76,30.00,10.0,NNE,5.8,-,N/A,,Clear,30,2013-09-03 13:52:00
9:52 AM,78.1,66.0,66,30.01,10.0,Calm,Calm,-,N/A,,Partly Cloudy,0,2013-09-03 14:52:00
10:52 AM,79.0,66.0,64,30.01,10.0,Variable,3.5,-,N/A,,Clear,0,2013-09-03 15:52:00
11:52 AM,82.0,63.0,52,30.00,10.0,NNW,9.2,-,N/A,,Scattered Clouds,340,2013-09-03 16:52:00
12:52 PM,84.0,60.1,44,29.99,10.0,Variable,5.8,-,N/A,,Mostly Cloudy,0,2013-09-03 17:52:00
1:52 PM,84.0,61.0,46,29.99,10.0,North,8.1,-,N/A,,Mostly Cloudy,350,2013-09-03 18:52:00
2:52 PM,84.9,62.1,46,29.97,10.0,Variable,5.8,-,N/A,,Scattered Clouds,0,2013-09-03 19:52:00
3:52 PM,84.9,62.1,46,29.96,10.0,North,8.1,-,N/A,,Partly Cloudy,10,2013-09-03 20:52:00
4:52 PM,82.9,62.1,49,29.96,10.0,North,6.9,-,N/A,,Scattered Clouds,360,2013-09-03 21:52:00
5:52 PM,82.0,62.1,51,29.96,10.0,NNE,6.9,-,N/A,,Clear,30,2013-09-03 22:52:00
6:52 PM,78.1,62.1,58,29.97,10.0,NNE,4.6,-,N/A,,Clear,30,2013-09-03 23:52:00
7:52 PM,72.0,64.0,76,29.99,10.0,Calm,Calm,-,N/A,,Clear,0,2013-09-04 00:52:00
8:52 PM,70.0,64.0,81,30.01,10.0,NNE,4.6,-,N/A,,Clear,20,2013-09-04 01:52:00
9:52 PM,69.1,64.0,84,30.03,10.0,North,4.6,-,N/A,,Clear,10,2013-09-04 02:52:00
10:52 PM,68.0,63.0,84,30.04,10.0,Calm,Calm,-,N/A,,Clear,0,2013-09-04 03:52:00
11:52 PM,66.9,63.0,87,30.05,10.0,Calm,Calm,-,N/A,,Clear,0,2013-09-04 04:52:00